sensor_id;sensor_type;location;lat;lon;timestamp;temperature;humidity
55064;DHT22;40963;52.168;21.296;2023-05-19T00:00:56;10.90;99.90
55064;DHT22;40963;52.168;21.296;2023-05-19T00:03:22;10.80;99.90
55064;DHT22;40963;52.168;21.296;2023-05-19T00:05:48;10.80;99.90
55064;DHT22;40963;52.168;21.296;2023-05-19T00:08:18;10.80;99.90
55064;DHT22;40963;52.168;21.296;2023-05-19T00:10:44;10.80;99.90
55064;DHT22;40963;52.168;21.296;2023-05-19T00:13:10;10.70;99.90
55064;DHT22;40963;52.168;21.296;2023-05-19T00:15:35;10.70;99.90
55064;DHT22;40963;52.168;21.296;2023-05-19T00:18:01;10.80;99.90
55064;DHT22;40963;52.168;21.296;2023-05-19T00:20:27;10.70;99.90
55064;DHT22;40963;52.168;21.296;2023-05-19T00:22:52;10.70;99.90
55064;DHT22;40963;52.168;21.296;2023-05-19T00:25:18;10.70;99.90
55064;DHT22;40963;52.168;21.296;2023-05-19T00:27:43;10.70;99.90
55064;DHT22;40963;52.168;21.296;2023-05-19T00:30:09;10.70;99.90
55064;DHT22;40963;52.168;21.296;2023-05-19T00:32:35;10.70;99.90
55064;DHT22;40963;52.168;21.296;2023-05-19T00:35:01;10.70;99.90
55064;DHT22;40963;52.168;21.296;2023-05-19T00:37:26;10.60;99.90
55064;DHT22;40963;52.168;21.296;2023-05-19T00:39:52;10.60;99.90
55064;DHT22;40963;52.168;21.296;2023-05-19T00:42:18;10.60;99.90
55064;DHT22;40963;52.168;21.296;2023-05-19T00:44:44;10.60;99.90
55064;DHT22;40963;52.168;21.296;2023-05-19T00:47:10;10.60;99.90
55064;DHT22;40963;52.168;21.296;2023-05-19T00:49:35;10.60;99.90
55064;DHT22;40963;52.168;21.296;2023-05-19T00:52:01;10.60;99.90
55064;DHT22;40963;52.168;21.296;2023-05-19T00:54:27;10.60;99.90
55064;DHT22;40963;52.168;21.296;2023-05-19T00:56:54;10.60;99.90
55064;DHT22;40963;52.168;21.296;2023-05-19T00:59:21;10.50;99.90
55064;DHT22;40963;52.168;21.296;2023-05-19T01:01:47;10.50;99.90
55064;DHT22;40963;52.168;21.296;2023-05-19T01:04:20;10.50;99.90
55064;DHT22;40963;52.168;21.296;2023-05-19T01:06:47;10.50;99.90
55064;DHT22;40963;52.168;21.296;2023-05-19T01:09:14;10.50;99.90
55064;DHT22;40963;52.168;21.296;2023-05-19T01:11:40;10.40;99.90
55064;DHT22;40963;52.168;21.296;2023-05-19T01:14:06;10.40;99.90
55064;DHT22;40963;52.168;21.296;2023-05-19T01:16:33;10.50;99.90
55064;DHT22;40963;52.168;21.296;2023-05-19T01:30:40;10.40;99.90
55064;DHT22;40963;52.168;21.296;2023-05-19T01:33:08;10.40;99.90
55064;DHT22;40963;52.168;21.296;2023-05-19T01:35:36;10.30;99.90
55064;DHT22;40963;52.168;21.296;2023-05-19T01:38:03;10.30;99.90
55064;DHT22;40963;52.168;21.296;2023-05-19T01:40:30;10.30;99.90
55064;DHT22;40963;52.168;21.296;2023-05-19T01:42:58;10.30;99.90
55064;DHT22;40963;52.168;21.296;2023-05-19T01:45:25;10.30;99.90
55064;DHT22;40963;52.168;21.296;2023-05-19T01:47:57;10.30;99.90
55064;DHT22;40963;52.168;21.296;2023-05-19T01:50:23;10.30;99.90
55064;DHT22;40963;52.168;21.296;2023-05-19T01:52:49;10.30;99.90
55064;DHT22;40963;52.168;21.296;2023-05-19T01:55:15;10.30;99.90
55064;DHT22;40963;52.168;21.296;2023-05-19T02:00:44;10.30;99.90
55064;DHT22;40963;52.168;21.296;2023-05-19T02:09:01;10.20;99.90
55064;DHT22;40963;52.168;21.296;2023-05-19T02:11:38;10.20;99.90
55064;DHT22;40963;52.168;21.296;2023-05-19T02:16:38;10.20;99.90
55064;DHT22;40963;52.168;21.296;2023-05-19T02:19:04;10.20;99.90
55064;DHT22;40963;52.168;21.296;2023-05-19T02:21:30;10.20;99.90
55064;DHT22;40963;52.168;21.296;2023-05-19T02:23:55;10.20;99.90
55064;DHT22;40963;52.168;21.296;2023-05-19T02:26:21;10.20;99.90
55064;DHT22;40963;52.168;21.296;2023-05-19T02:28:47;10.20;99.90
55064;DHT22;40963;52.168;21.296;2023-05-19T02:31:12;10.20;99.90
55064;DHT22;40963;52.168;21.296;2023-05-19T02:33:38;10.10;99.90
55064;DHT22;40963;52.168;21.296;2023-05-19T02:36:04;10.10;99.90
55064;DHT22;40963;52.168;21.296;2023-05-19T02:38:30;10.10;99.90
55064;DHT22;40963;52.168;21.296;2023-05-19T02:40:55;10.10;99.90
55064;DHT22;40963;52.168;21.296;2023-05-19T02:43:21;10.10;99.90
55064;DHT22;40963;52.168;21.296;2023-05-19T02:45:47;10.10;99.90
55064;DHT22;40963;52.168;21.296;2023-05-19T02:48:12;10.10;99.90
55064;DHT22;40963;52.168;21.296;2023-05-19T02:50:38;10.10;99.90
55064;DHT22;40963;52.168;21.296;2023-05-19T02:53:03;10.10;99.90
55064;DHT22;40963;52.168;21.296;2023-05-19T02:55:29;10.10;99.90
55064;DHT22;40963;52.168;21.296;2023-05-19T02:57:55;10.00;99.90
55064;DHT22;40963;52.168;21.296;2023-05-19T03:00:20;10.10;99.90
55064;DHT22;40963;52.168;21.296;2023-05-19T03:02:46;10.00;99.90
55064;DHT22;40963;52.168;21.296;2023-05-19T03:05:12;10.10;99.90
55064;DHT22;40963;52.168;21.296;2023-05-19T03:07:38;10.00;99.90
55064;DHT22;40963;52.168;21.296;2023-05-19T03:10:04;10.10;99.90
55064;DHT22;40963;52.168;21.296;2023-05-19T03:12:31;10.00;99.90
55064;DHT22;40963;52.168;21.296;2023-05-19T03:14:58;10.10;99.90
55064;DHT22;40963;52.168;21.296;2023-05-19T03:17:23;10.00;99.90
55064;DHT22;40963;52.168;21.296;2023-05-19T03:19:49;10.00;99.90
55064;DHT22;40963;52.168;21.296;2023-05-19T03:22:15;10.10;99.90
55064;DHT22;40963;52.168;21.296;2023-05-19T03:24:43;10.00;99.90
55064;DHT22;40963;52.168;21.296;2023-05-19T03:27:08;10.10;99.90
55064;DHT22;40963;52.168;21.296;2023-05-19T03:29:34;10.00;99.90
55064;DHT22;40963;52.168;21.296;2023-05-19T03:32:01;10.10;99.90
55064;DHT22;40963;52.168;21.296;2023-05-19T03:34:26;10.10;99.90
55064;DHT22;40963;52.168;21.296;2023-05-19T03:36:52;10.10;99.90
55064;DHT22;40963;52.168;21.296;2023-05-19T03:39:18;10.10;99.90
55064;DHT22;40963;52.168;21.296;2023-05-19T03:41:44;10.10;99.90
55064;DHT22;40963;52.168;21.296;2023-05-19T03:44:09;10.10;99.90
55064;DHT22;40963;52.168;21.296;2023-05-19T03:46:35;10.10;99.90
55064;DHT22;40963;52.168;21.296;2023-05-19T03:49:01;10.10;99.90
55064;DHT22;40963;52.168;21.296;2023-05-19T03:51:26;10.10;99.90
55064;DHT22;40963;52.168;21.296;2023-05-19T03:53:54;10.10;99.90
55064;DHT22;40963;52.168;21.296;2023-05-19T03:56:20;10.10;99.90
55064;DHT22;40963;52.168;21.296;2023-05-19T03:58:48;10.10;99.90
55064;DHT22;40963;52.168;21.296;2023-05-19T04:01:14;10.10;99.90
55064;DHT22;40963;52.168;21.296;2023-05-19T04:03:39;10.10;99.90
55064;DHT22;40963;52.168;21.296;2023-05-19T04:06:06;10.10;99.90
55064;DHT22;40963;52.168;21.296;2023-05-19T04:08:32;10.10;99.90
55064;DHT22;40963;52.168;21.296;2023-05-19T04:10:57;10.10;99.90
55064;DHT22;40963;52.168;21.296;2023-05-19T04:13:23;10.10;99.90
55064;DHT22;40963;52.168;21.296;2023-05-19T04:15:48;10.10;99.90
55064;DHT22;40963;52.168;21.296;2023-05-19T04:18:14;10.10;99.90
55064;DHT22;40963;52.168;21.296;2023-05-19T04:20:39;10.10;99.90
55064;DHT22;40963;52.168;21.296;2023-05-19T04:23:05;10.10;99.90
55064;DHT22;40963;52.168;21.296;2023-05-19T04:25:31;10.10;99.90
55064;DHT22;40963;52.168;21.296;2023-05-19T04:27:57;10.10;99.90
55064;DHT22;40963;52.168;21.296;2023-05-19T04:30:23;10.10;99.90
55064;DHT22;40963;52.168;21.296;2023-05-19T04:32:49;10.10;99.90
55064;DHT22;40963;52.168;21.296;2023-05-19T04:35:15;10.20;99.90
55064;DHT22;40963;52.168;21.296;2023-05-19T04:37:43;10.20;99.90
55064;DHT22;40963;52.168;21.296;2023-05-19T04:40:11;10.20;99.90
55064;DHT22;40963;52.168;21.296;2023-05-19T04:42:37;10.20;99.90
55064;DHT22;40963;52.168;21.296;2023-05-19T04:45:06;10.20;99.90
55064;DHT22;40963;52.168;21.296;2023-05-19T04:47:33;10.30;99.90
55064;DHT22;40963;52.168;21.296;2023-05-19T04:50:02;10.30;99.90
55064;DHT22;40963;52.168;21.296;2023-05-19T04:52:28;10.30;99.90
55064;DHT22;40963;52.168;21.296;2023-05-19T04:54:53;10.30;99.90
55064;DHT22;40963;52.168;21.296;2023-05-19T04:57:19;10.30;99.90
55064;DHT22;40963;52.168;21.296;2023-05-19T04:59:45;10.30;99.90
55064;DHT22;40963;52.168;21.296;2023-05-19T05:02:10;10.30;99.90
55064;DHT22;40963;52.168;21.296;2023-05-19T05:04:36;10.30;99.90
55064;DHT22;40963;52.168;21.296;2023-05-19T05:07:04;10.40;99.90
55064;DHT22;40963;52.168;21.296;2023-05-19T05:09:30;10.40;99.90
55064;DHT22;40963;52.168;21.296;2023-05-19T05:11:56;10.40;99.90
55064;DHT22;40963;52.168;21.296;2023-05-19T05:14:22;10.40;99.90
55064;DHT22;40963;52.168;21.296;2023-05-19T05:16:48;10.40;99.90
55064;DHT22;40963;52.168;21.296;2023-05-19T05:19:15;10.50;99.90
55064;DHT22;40963;52.168;21.296;2023-05-19T05:21:40;10.50;99.90
55064;DHT22;40963;52.168;21.296;2023-05-19T05:24:08;10.50;99.90
55064;DHT22;40963;52.168;21.296;2023-05-19T05:26:34;10.50;99.90
55064;DHT22;40963;52.168;21.296;2023-05-19T05:29:00;10.50;99.90
55064;DHT22;40963;52.168;21.296;2023-05-19T05:31:26;10.50;99.90
55064;DHT22;40963;52.168;21.296;2023-05-19T05:33:51;10.50;99.90
55064;DHT22;40963;52.168;21.296;2023-05-19T05:36:17;10.50;99.90
55064;DHT22;40963;52.168;21.296;2023-05-19T05:38:43;10.60;99.90
55064;DHT22;40963;52.168;21.296;2023-05-19T05:41:08;10.60;99.90
55064;DHT22;40963;52.168;21.296;2023-05-19T05:43:34;10.60;99.90
55064;DHT22;40963;52.168;21.296;2023-05-19T05:45:59;10.60;99.90
55064;DHT22;40963;52.168;21.296;2023-05-19T05:48:25;10.60;99.90
55064;DHT22;40963;52.168;21.296;2023-05-19T05:50:51;10.70;99.90
55064;DHT22;40963;52.168;21.296;2023-05-19T05:53:18;10.70;99.90
55064;DHT22;40963;52.168;21.296;2023-05-19T05:55:47;10.70;99.90
55064;DHT22;40963;52.168;21.296;2023-05-19T05:58:13;10.80;99.90
55064;DHT22;40963;52.168;21.296;2023-05-19T06:00:40;10.80;99.90
55064;DHT22;40963;52.168;21.296;2023-05-19T06:03:08;10.90;99.90
55064;DHT22;40963;52.168;21.296;2023-05-19T06:05:34;10.90;99.90
55064;DHT22;40963;52.168;21.296;2023-05-19T06:08:00;10.90;99.90
55064;DHT22;40963;52.168;21.296;2023-05-19T06:10:27;10.90;99.90
55064;DHT22;40963;52.168;21.296;2023-05-19T06:12:53;11.00;99.90
55064;DHT22;40963;52.168;21.296;2023-05-19T06:15:18;11.00;99.90
55064;DHT22;40963;52.168;21.296;2023-05-19T06:17:44;11.00;99.90
55064;DHT22;40963;52.168;21.296;2023-05-19T06:20:10;11.00;99.90
55064;DHT22;40963;52.168;21.296;2023-05-19T06:22:37;11.00;99.90
55064;DHT22;40963;52.168;21.296;2023-05-19T06:25:03;11.10;99.90
55064;DHT22;40963;52.168;21.296;2023-05-19T06:27:28;11.10;99.90
55064;DHT22;40963;52.168;21.296;2023-05-19T06:29:54;11.10;99.90
55064;DHT22;40963;52.168;21.296;2023-05-19T06:32:20;11.10;99.90
55064;DHT22;40963;52.168;21.296;2023-05-19T06:34:45;11.10;99.90
55064;DHT22;40963;52.168;21.296;2023-05-19T06:37:21;11.10;99.90
55064;DHT22;40963;52.168;21.296;2023-05-19T06:39:51;11.10;99.90
55064;DHT22;40963;52.168;21.296;2023-05-19T06:42:18;11.10;99.90
55064;DHT22;40963;52.168;21.296;2023-05-19T06:44:50;11.20;99.90
55064;DHT22;40963;52.168;21.296;2023-05-19T06:47:17;11.20;99.90
55064;DHT22;40963;52.168;21.296;2023-05-19T06:49:46;11.20;99.90
55064;DHT22;40963;52.168;21.296;2023-05-19T06:52:15;11.20;99.90
55064;DHT22;40963;52.168;21.296;2023-05-19T06:54:41;11.30;99.90
55064;DHT22;40963;52.168;21.296;2023-05-19T06:57:06;11.30;99.90
55064;DHT22;40963;52.168;21.296;2023-05-19T06:59:32;11.30;99.90
55064;DHT22;40963;52.168;21.296;2023-05-19T07:01:57;11.40;99.90
55064;DHT22;40963;52.168;21.296;2023-05-19T07:04:23;11.40;99.90
55064;DHT22;40963;52.168;21.296;2023-05-19T07:06:49;11.40;99.90
55064;DHT22;40963;52.168;21.296;2023-05-19T07:09:14;11.50;99.90
55064;DHT22;40963;52.168;21.296;2023-05-19T07:11:40;11.50;99.90
55064;DHT22;40963;52.168;21.296;2023-05-19T07:14:06;11.60;99.90
55064;DHT22;40963;52.168;21.296;2023-05-19T07:16:31;11.50;99.90
55064;DHT22;40963;52.168;21.296;2023-05-19T07:18:57;11.50;99.90
55064;DHT22;40963;52.168;21.296;2023-05-19T07:21:22;11.60;99.90
55064;DHT22;40963;52.168;21.296;2023-05-19T07:23:48;11.60;99.90
55064;DHT22;40963;52.168;21.296;2023-05-19T07:26:13;11.60;99.90
55064;DHT22;40963;52.168;21.296;2023-05-19T07:28:39;11.60;99.90
55064;DHT22;40963;52.168;21.296;2023-05-19T07:31:06;11.60;99.90
55064;DHT22;40963;52.168;21.296;2023-05-19T07:33:32;11.60;99.90
55064;DHT22;40963;52.168;21.296;2023-05-19T07:35:57;11.60;99.90
55064;DHT22;40963;52.168;21.296;2023-05-19T07:38:23;11.60;99.90
55064;DHT22;40963;52.168;21.296;2023-05-19T07:40:49;11.60;99.90
55064;DHT22;40963;52.168;21.296;2023-05-19T07:43:14;11.60;99.90
55064;DHT22;40963;52.168;21.296;2023-05-19T07:45:40;11.70;99.90
55064;DHT22;40963;52.168;21.296;2023-05-19T07:48:06;11.70;99.90
55064;DHT22;40963;52.168;21.296;2023-05-19T07:50:32;11.70;99.90
55064;DHT22;40963;52.168;21.296;2023-05-19T07:52:57;11.90;99.90
55064;DHT22;40963;52.168;21.296;2023-05-19T07:55:23;11.90;99.90
55064;DHT22;40963;52.168;21.296;2023-05-19T07:57:49;11.90;99.90
55064;DHT22;40963;52.168;21.296;2023-05-19T08:00:15;12.00;99.90
55064;DHT22;40963;52.168;21.296;2023-05-19T08:02:42;12.00;99.90
55064;DHT22;40963;52.168;21.296;2023-05-19T08:05:08;12.00;99.90
55064;DHT22;40963;52.168;21.296;2023-05-19T08:07:34;12.00;99.90
55064;DHT22;40963;52.168;21.296;2023-05-19T08:09:59;12.00;99.90
55064;DHT22;40963;52.168;21.296;2023-05-19T08:12:25;12.10;99.90
55064;DHT22;40963;52.168;21.296;2023-05-19T08:14:50;12.10;99.90
55064;DHT22;40963;52.168;21.296;2023-05-19T08:17:17;12.20;99.90
55064;DHT22;40963;52.168;21.296;2023-05-19T08:19:42;12.20;99.90
55064;DHT22;40963;52.168;21.296;2023-05-19T08:22:08;12.20;99.90
55064;DHT22;40963;52.168;21.296;2023-05-19T08:24:33;12.30;99.90
55064;DHT22;40963;52.168;21.296;2023-05-19T08:26:59;12.30;99.90
55064;DHT22;40963;52.168;21.296;2023-05-19T08:29:25;12.30;99.90
55064;DHT22;40963;52.168;21.296;2023-05-19T08:31:50;12.40;99.90
55064;DHT22;40963;52.168;21.296;2023-05-19T08:34:17;12.40;99.90
55064;DHT22;40963;52.168;21.296;2023-05-19T08:36:43;12.40;99.90
55064;DHT22;40963;52.168;21.296;2023-05-19T08:39:09;12.50;99.90
55064;DHT22;40963;52.168;21.296;2023-05-19T08:41:35;12.50;99.90
55064;DHT22;40963;52.168;21.296;2023-05-19T08:44:01;12.50;99.90
55064;DHT22;40963;52.168;21.296;2023-05-19T08:46:28;12.50;99.90
55064;DHT22;40963;52.168;21.296;2023-05-19T08:49:00;12.50;99.90
55064;DHT22;40963;52.168;21.296;2023-05-19T08:51:42;12.60;99.90
55064;DHT22;40963;52.168;21.296;2023-05-19T08:54:16;12.60;99.90
55064;DHT22;40963;52.168;21.296;2023-05-19T08:56:43;12.60;99.90
55064;DHT22;40963;52.168;21.296;2023-05-19T08:59:15;12.60;99.90
55064;DHT22;40963;52.168;21.296;2023-05-19T09:01:44;12.70;99.90
55064;DHT22;40963;52.168;21.296;2023-05-19T09:04:11;12.70;99.90
55064;DHT22;40963;52.168;21.296;2023-05-19T09:06:37;12.70;99.90
55064;DHT22;40963;52.168;21.296;2023-05-19T09:09:05;12.70;99.90
55064;DHT22;40963;52.168;21.296;2023-05-19T09:11:32;12.70;99.90
55064;DHT22;40963;52.168;21.296;2023-05-19T09:13:58;12.80;99.90
55064;DHT22;40963;52.168;21.296;2023-05-19T09:16:24;12.80;99.90
55064;DHT22;40963;52.168;21.296;2023-05-19T09:18:54;12.90;99.90
55064;DHT22;40963;52.168;21.296;2023-05-19T09:21:29;12.90;99.90
55064;DHT22;40963;52.168;21.296;2023-05-19T09:24:04;13.00;99.90
55064;DHT22;40963;52.168;21.296;2023-05-19T09:26:38;13.10;99.90
55064;DHT22;40963;52.168;21.296;2023-05-19T09:29:11;13.00;99.90
55064;DHT22;40963;52.168;21.296;2023-05-19T09:31:37;13.10;99.90
55064;DHT22;40963;52.168;21.296;2023-05-19T09:34:02;13.10;99.90
55064;DHT22;40963;52.168;21.296;2023-05-19T09:36:28;13.10;99.90
55064;DHT22;40963;52.168;21.296;2023-05-19T09:38:55;13.10;99.90
55064;DHT22;40963;52.168;21.296;2023-05-19T09:41:20;13.10;99.90
55064;DHT22;40963;52.168;21.296;2023-05-19T09:43:53;13.10;99.90
55064;DHT22;40963;52.168;21.296;2023-05-19T09:46:23;13.10;99.90
55064;DHT22;40963;52.168;21.296;2023-05-19T09:48:56;13.00;99.90
55064;DHT22;40963;52.168;21.296;2023-05-19T09:51:22;13.10;99.90
55064;DHT22;40963;52.168;21.296;2023-05-19T09:53:48;13.10;99.90
55064;DHT22;40963;52.168;21.296;2023-05-19T09:56:14;13.10;99.90
55064;DHT22;40963;52.168;21.296;2023-05-19T09:58:44;13.20;99.90
55064;DHT22;40963;52.168;21.296;2023-05-19T10:01:10;13.20;99.90
55064;DHT22;40963;52.168;21.296;2023-05-19T10:03:36;13.20;99.90
55064;DHT22;40963;52.168;21.296;2023-05-19T10:06:03;13.20;99.90
55064;DHT22;40963;52.168;21.296;2023-05-19T10:08:30;13.20;99.90
55064;DHT22;40963;52.168;21.296;2023-05-19T10:10:57;13.20;99.90
55064;DHT22;40963;52.168;21.296;2023-05-19T10:13:23;13.20;99.90
55064;DHT22;40963;52.168;21.296;2023-05-19T10:15:49;13.20;99.90
55064;DHT22;40963;52.168;21.296;2023-05-19T10:18:17;13.30;99.90
55064;DHT22;40963;52.168;21.296;2023-05-19T10:20:43;13.30;99.90
55064;DHT22;40963;52.168;21.296;2023-05-19T10:23:09;13.40;99.90
55064;DHT22;40963;52.168;21.296;2023-05-19T10:25:35;13.40;99.90
55064;DHT22;40963;52.168;21.296;2023-05-19T10:28:05;13.40;99.90
55064;DHT22;40963;52.168;21.296;2023-05-19T10:30:40;13.50;99.90
55064;DHT22;40963;52.168;21.296;2023-05-19T10:33:09;13.50;99.90
55064;DHT22;40963;52.168;21.296;2023-05-19T10:36:14;13.50;99.90
55064;DHT22;40963;52.168;21.296;2023-05-19T10:44:39;13.50;99.90
55064;DHT22;40963;52.168;21.296;2023-05-19T10:47:10;13.50;99.90
55064;DHT22;40963;52.168;21.296;2023-05-19T10:49:36;13.50;99.90
55064;DHT22;40963;52.168;21.296;2023-05-19T10:52:03;13.50;99.90
55064;DHT22;40963;52.168;21.296;2023-05-19T10:54:41;13.60;99.90
55064;DHT22;40963;52.168;21.296;2023-05-19T10:57:16;13.60;99.90
55064;DHT22;40963;52.168;21.296;2023-05-19T10:59:42;13.60;99.90
55064;DHT22;40963;52.168;21.296;2023-05-19T11:02:38;13.60;99.90
55064;DHT22;40963;52.168;21.296;2023-05-19T11:05:08;13.60;99.90
55064;DHT22;40963;52.168;21.296;2023-05-19T11:07:34;13.50;99.90
55064;DHT22;40963;52.168;21.296;2023-05-19T11:10:04;13.50;99.90
55064;DHT22;40963;52.168;21.296;2023-05-19T11:12:42;13.60;99.90
55064;DHT22;40963;52.168;21.296;2023-05-19T11:15:11;13.60;99.90
55064;DHT22;40963;52.168;21.296;2023-05-19T11:17:39;13.60;99.90
55064;DHT22;40963;52.168;21.296;2023-05-19T11:20:07;13.70;99.90
55064;DHT22;40963;52.168;21.296;2023-05-19T11:22:35;13.70;99.90
55064;DHT22;40963;52.168;21.296;2023-05-19T11:25:01;13.70;99.90
55064;DHT22;40963;52.168;21.296;2023-05-19T11:27:29;13.70;99.90
55064;DHT22;40963;52.168;21.296;2023-05-19T11:32:35;13.70;99.90
55064;DHT22;40963;52.168;21.296;2023-05-19T11:35:07;13.80;99.90
55064;DHT22;40963;52.168;21.296;2023-05-19T11:37:33;13.70;99.90
55064;DHT22;40963;52.168;21.296;2023-05-19T11:40:05;13.80;99.90
55064;DHT22;40963;52.168;21.296;2023-05-19T11:42:31;13.80;99.90
55064;DHT22;40963;52.168;21.296;2023-05-19T11:44:59;13.80;99.90
55064;DHT22;40963;52.168;21.296;2023-05-19T11:47:26;13.80;99.90
55064;DHT22;40963;52.168;21.296;2023-05-19T11:49:53;13.90;99.90
55064;DHT22;40963;52.168;21.296;2023-05-19T11:52:21;13.90;99.90
55064;DHT22;40963;52.168;21.296;2023-05-19T11:54:48;13.90;99.90
55064;DHT22;40963;52.168;21.296;2023-05-19T11:57:13;13.90;99.90
55064;DHT22;40963;52.168;21.296;2023-05-19T11:59:40;13.90;99.90
55064;DHT22;40963;52.168;21.296;2023-05-19T12:02:22;14.00;99.90
55064;DHT22;40963;52.168;21.296;2023-05-19T12:04:52;13.90;99.90
55064;DHT22;40963;52.168;21.296;2023-05-19T12:07:21;13.90;99.90
55064;DHT22;40963;52.168;21.296;2023-05-19T12:09:48;13.90;99.90
55064;DHT22;40963;52.168;21.296;2023-05-19T12:12:19;13.90;99.90
55064;DHT22;40963;52.168;21.296;2023-05-19T12:14:46;13.90;99.90
55064;DHT22;40963;52.168;21.296;2023-05-19T12:17:12;14.00;99.90
55064;DHT22;40963;52.168;21.296;2023-05-19T12:19:39;13.90;99.90
55064;DHT22;40963;52.168;21.296;2023-05-19T12:22:07;13.90;99.90
55064;DHT22;40963;52.168;21.296;2023-05-19T12:24:34;13.90;99.90
55064;DHT22;40963;52.168;21.296;2023-05-19T12:27:16;13.90;99.90
55064;DHT22;40963;52.168;21.296;2023-05-19T12:29:42;14.00;99.90
55064;DHT22;40963;52.168;21.296;2023-05-19T12:32:08;14.00;99.90
55064;DHT22;40963;52.168;21.296;2023-05-19T12:34:35;14.00;99.90
55064;DHT22;40963;52.168;21.296;2023-05-19T12:37:02;14.10;99.90
55064;DHT22;40963;52.168;21.296;2023-05-19T12:39:28;14.00;99.90
55064;DHT22;40963;52.168;21.296;2023-05-19T12:42:00;14.00;99.90
55064;DHT22;40963;52.168;21.296;2023-05-19T12:44:27;14.10;99.90
55064;DHT22;40963;52.168;21.296;2023-05-19T12:46:52;14.10;99.90
55064;DHT22;40963;52.168;21.296;2023-05-19T12:49:18;14.10;99.90
55064;DHT22;40963;52.168;21.296;2023-05-19T12:51:51;14.10;99.90
55064;DHT22;40963;52.168;21.296;2023-05-19T12:54:22;14.10;99.90
55064;DHT22;40963;52.168;21.296;2023-05-19T12:56:51;14.10;99.90
55064;DHT22;40963;52.168;21.296;2023-05-19T12:59:24;14.10;99.90
55064;DHT22;40963;52.168;21.296;2023-05-19T13:01:57;14.10;99.90
55064;DHT22;40963;52.168;21.296;2023-05-19T13:04:24;14.10;99.90
55064;DHT22;40963;52.168;21.296;2023-05-19T13:06:50;14.20;99.90
55064;DHT22;40963;52.168;21.296;2023-05-19T13:09:16;14.20;99.90
55064;DHT22;40963;52.168;21.296;2023-05-19T13:11:42;14.20;99.90
55064;DHT22;40963;52.168;21.296;2023-05-19T13:14:10;14.30;99.90
55064;DHT22;40963;52.168;21.296;2023-05-19T13:16:36;14.30;99.90
55064;DHT22;40963;52.168;21.296;2023-05-19T13:19:02;14.30;99.90
55064;DHT22;40963;52.168;21.296;2023-05-19T13:21:27;14.30;99.90
55064;DHT22;40963;52.168;21.296;2023-05-19T13:23:53;14.30;99.90
55064;DHT22;40963;52.168;21.296;2023-05-19T13:26:19;14.30;99.90
55064;DHT22;40963;52.168;21.296;2023-05-19T13:28:45;14.30;99.90
55064;DHT22;40963;52.168;21.296;2023-05-19T13:31:12;14.30;99.90
55064;DHT22;40963;52.168;21.296;2023-05-19T13:33:37;14.40;99.90
55064;DHT22;40963;52.168;21.296;2023-05-19T13:36:03;14.40;99.90
55064;DHT22;40963;52.168;21.296;2023-05-19T13:38:29;14.40;99.90
55064;DHT22;40963;52.168;21.296;2023-05-19T13:40:55;14.40;99.90
55064;DHT22;40963;52.168;21.296;2023-05-19T13:43:20;14.40;99.90
55064;DHT22;40963;52.168;21.296;2023-05-19T13:45:46;14.50;99.90
55064;DHT22;40963;52.168;21.296;2023-05-19T13:48:11;14.40;99.90
55064;DHT22;40963;52.168;21.296;2023-05-19T13:50:37;14.40;99.90
55064;DHT22;40963;52.168;21.296;2023-05-19T13:53:03;14.40;99.90
55064;DHT22;40963;52.168;21.296;2023-05-19T13:55:28;14.30;99.90
55064;DHT22;40963;52.168;21.296;2023-05-19T13:57:54;14.30;99.90
55064;DHT22;40963;52.168;21.296;2023-05-19T14:00:19;14.30;99.90
55064;DHT22;40963;52.168;21.296;2023-05-19T14:02:45;14.30;99.90
55064;DHT22;40963;52.168;21.296;2023-05-19T14:05:11;14.30;99.90
55064;DHT22;40963;52.168;21.296;2023-05-19T14:07:37;14.40;99.90
55064;DHT22;40963;52.168;21.296;2023-05-19T14:10:03;14.30;99.90
55064;DHT22;40963;52.168;21.296;2023-05-19T14:12:31;14.40;99.90
55064;DHT22;40963;52.168;21.296;2023-05-19T14:14:57;14.40;99.90
55064;DHT22;40963;52.168;21.296;2023-05-19T14:17:22;14.30;99.90
55064;DHT22;40963;52.168;21.296;2023-05-19T14:19:48;14.40;99.90
55064;DHT22;40963;52.168;21.296;2023-05-19T14:22:13;14.40;99.90
55064;DHT22;40963;52.168;21.296;2023-05-19T14:24:39;14.50;99.90
55064;DHT22;40963;52.168;21.296;2023-05-19T14:27:05;14.50;99.90
55064;DHT22;40963;52.168;21.296;2023-05-19T14:29:31;14.50;99.90
55064;DHT22;40963;52.168;21.296;2023-05-19T14:31:57;14.40;99.90
55064;DHT22;40963;52.168;21.296;2023-05-19T14:34:22;14.50;99.90
55064;DHT22;40963;52.168;21.296;2023-05-19T14:36:48;14.50;99.90
55064;DHT22;40963;52.168;21.296;2023-05-19T14:39:13;14.50;99.90
55064;DHT22;40963;52.168;21.296;2023-05-19T14:41:39;14.50;99.90
55064;DHT22;40963;52.168;21.296;2023-05-19T14:44:05;14.50;99.90
55064;DHT22;40963;52.168;21.296;2023-05-19T14:46:30;14.50;99.90
55064;DHT22;40963;52.168;21.296;2023-05-19T14:48:56;14.50;99.90
55064;DHT22;40963;52.168;21.296;2023-05-19T14:51:21;14.50;99.90
55064;DHT22;40963;52.168;21.296;2023-05-19T14:53:47;14.60;99.90
55064;DHT22;40963;52.168;21.296;2023-05-19T14:56:14;14.60;99.90
55064;DHT22;40963;52.168;21.296;2023-05-19T14:58:40;14.60;99.90
55064;DHT22;40963;52.168;21.296;2023-05-19T15:01:05;14.60;99.90
55064;DHT22;40963;52.168;21.296;2023-05-19T15:03:39;14.60;99.90
55064;DHT22;40963;52.168;21.296;2023-05-19T15:06:09;14.60;99.90
55064;DHT22;40963;52.168;21.296;2023-05-19T15:08:37;14.60;99.90
55064;DHT22;40963;52.168;21.296;2023-05-19T15:11:04;14.60;99.90
55064;DHT22;40963;52.168;21.296;2023-05-19T15:13:30;14.60;99.90
55064;DHT22;40963;52.168;21.296;2023-05-19T15:15:56;14.60;99.90
55064;DHT22;40963;52.168;21.296;2023-05-19T15:18:21;14.60;99.90
55064;DHT22;40963;52.168;21.296;2023-05-19T15:20:47;14.60;99.90
55064;DHT22;40963;52.168;21.296;2023-05-19T15:23:12;14.60;99.90
55064;DHT22;40963;52.168;21.296;2023-05-19T15:25:38;14.60;99.90
55064;DHT22;40963;52.168;21.296;2023-05-19T15:28:04;14.60;99.90
55064;DHT22;40963;52.168;21.296;2023-05-19T15:30:29;14.60;99.90
55064;DHT22;40963;52.168;21.296;2023-05-19T15:32:55;14.60;99.90
55064;DHT22;40963;52.168;21.296;2023-05-19T15:35:20;14.60;99.90
55064;DHT22;40963;52.168;21.296;2023-05-19T15:37:46;14.60;99.90
55064;DHT22;40963;52.168;21.296;2023-05-19T15:40:11;14.60;99.90
55064;DHT22;40963;52.168;21.296;2023-05-19T15:42:37;14.60;99.90
55064;DHT22;40963;52.168;21.296;2023-05-19T15:45:04;14.60;99.90